Impacts TAF Board
For situational awareness. Not to be used for flight planning purposes.
IDs:

KGWO - Greenwood/Leflore Ar, MS, US

Issued at 1120 UTC 15 Oct 2018
Updated at 1449 UTC 15 Oct 2018
Potential Impact None Slight Moderate High
Time1353Z 15/15Z 15/16Z 15/17Z 15/18Z 15/19Z 15/20Z 15/21Z 15/22Z 15/23Z 16/00Z 16/01Z 16/02Z 16/03Z>>
Type OBS PRVL PRVL PRVL PRVL PRVL PRVL PRVL PRVL PRVL PRVL PRVL PRVL PRVL
VIS 10 >6 >6 >6 >6 >6 >6 >6 >6 >6 >6 >6 >6 >6
CIG 32 25 25 15 15 15 25 25 25 25 15 15 15 15
Cover BKN BKN BKN BKN BKN BKN BKN BKN BKN BKN BKN BKN BKN BKN
FltCat VFR MVFR MVFR MVFR MVFR MVFR MVFR MVFR MVFR MVFR MVFR MVFR MVFR MVFR
WX -- -- -- VCSH VCSH VCSH VCSH VCSH VCSH VCSH -- -- -- --
WDir 180 170 170 320 320 320 360 360 360 360 360 360 360 360
WSpd 4 4 4 7 7 7 10 10 10 10 10 10 10 10
WGst -- -- -- -- -- -- -- -- -- -- -- -- -- --
Raw TAF
KGWO 151120Z 1512/1612 18003KT P6SM BKN040
  FM151500 17004KT P6SM BKN025
  FM151700 32007KT P6SM VCSH BKN015
  FM152000 36010KT P6SM VCSH BKN025
  FM160000 36010KT P6SM BKN015


Raw METAR
KGWO 151353Z AUTO 18004KT 10SM BKN032 BKN046 23/21 A3007 RMK AO2 SLP179 T02280206
KGWO 151319Z AUTO 00000KT 10SM SCT030 BKN037 BKN047 21/20 A3006 RMK AO2 T02110200
KGWO 151253Z AUTO 00000KT 10SM BKN029 BKN041 21/19 A3005 RMK AO2 SLP173 T02060194
KGWO 151153Z AUTO 00000KT 10SM BKN039 19/18 A3004 RMK AO2 SLP169 T01940183 10217 20189 51015

METAR Board
Radar Display
Forecast Discussion
For situational awareness. Not to be used for flight planning purposes.